sensor_id;sensor_type;location;lat;lon;timestamp;temperature;humidity
23568;DHT22;11962;50.838;4.430;2023-06-01T00:01:53;17.80;99.90
23568;DHT22;11962;50.838;4.430;2023-06-01T00:04:19;17.80;99.90
23568;DHT22;11962;50.838;4.430;2023-06-01T00:06:44;17.70;99.90
23568;DHT22;11962;50.838;4.430;2023-06-01T00:09:10;17.70;99.90
23568;DHT22;11962;50.838;4.430;2023-06-01T00:11:36;17.70;99.90
23568;DHT22;11962;50.838;4.430;2023-06-01T00:14:03;17.60;99.90
23568;DHT22;11962;50.838;4.430;2023-06-01T00:16:29;17.50;99.90
23568;DHT22;11962;50.838;4.430;2023-06-01T00:18:56;17.50;99.90
23568;DHT22;11962;50.838;4.430;2023-06-01T00:21:23;17.50;99.90
23568;DHT22;11962;50.838;4.430;2023-06-01T00:23:49;17.40;99.90
23568;DHT22;11962;50.838;4.430;2023-06-01T00:26:15;17.40;99.90
23568;DHT22;11962;50.838;4.430;2023-06-01T00:28:41;17.30;99.90
23568;DHT22;11962;50.838;4.430;2023-06-01T00:31:07;17.20;99.90
23568;DHT22;11962;50.838;4.430;2023-06-01T00:33:32;17.20;99.90
23568;DHT22;11962;50.838;4.430;2023-06-01T00:35:58;17.20;99.90
23568;DHT22;11962;50.838;4.430;2023-06-01T00:38:24;17.20;99.90
23568;DHT22;11962;50.838;4.430;2023-06-01T00:40:50;17.20;99.90
23568;DHT22;11962;50.838;4.430;2023-06-01T00:43:19;17.10;99.90
23568;DHT22;11962;50.838;4.430;2023-06-01T00:45:45;17.00;99.90
23568;DHT22;11962;50.838;4.430;2023-06-01T00:48:12;17.00;99.90
23568;DHT22;11962;50.838;4.430;2023-06-01T00:50:38;17.00;99.90
23568;DHT22;11962;50.838;4.430;2023-06-01T00:53:07;16.90;99.90
23568;DHT22;11962;50.838;4.430;2023-06-01T00:55:34;16.80;99.90
23568;DHT22;11962;50.838;4.430;2023-06-01T00:58:01;16.80;99.90
23568;DHT22;11962;50.838;4.430;2023-06-01T01:00:29;16.70;99.90
23568;DHT22;11962;50.838;4.430;2023-06-01T01:02:55;16.70;99.90
23568;DHT22;11962;50.838;4.430;2023-06-01T01:05:22;16.70;99.90
23568;DHT22;11962;50.838;4.430;2023-06-01T01:07:56;16.60;99.90
23568;DHT22;11962;50.838;4.430;2023-06-01T01:10:25;16.60;99.90
23568;DHT22;11962;50.838;4.430;2023-06-01T01:18:39;16.50;99.90
23568;DHT22;11962;50.838;4.430;2023-06-01T01:21:09;16.50;99.90
23568;DHT22;11962;50.838;4.430;2023-06-01T01:29:35;16.30;99.90
23568;DHT22;11962;50.838;4.430;2023-06-01T01:32:04;16.30;99.90
23568;DHT22;11962;50.838;4.430;2023-06-01T01:34:32;16.20;99.90
23568;DHT22;11962;50.838;4.430;2023-06-01T01:36:59;16.20;99.90
23568;DHT22;11962;50.838;4.430;2023-06-01T01:39:25;16.20;99.90
23568;DHT22;11962;50.838;4.430;2023-06-01T01:41:50;16.20;99.90
23568;DHT22;11962;50.838;4.430;2023-06-01T01:44:16;16.10;99.90
23568;DHT22;11962;50.838;4.430;2023-06-01T01:46:57;16.10;99.90
23568;DHT22;11962;50.838;4.430;2023-06-01T01:52:05;16.10;99.90
23568;DHT22;11962;50.838;4.430;2023-06-01T01:54:36;16.00;99.90
23568;DHT22;11962;50.838;4.430;2023-06-01T01:57:03;16.00;99.90
23568;DHT22;11962;50.838;4.430;2023-06-01T01:59:30;16.00;99.90
23568;DHT22;11962;50.838;4.430;2023-06-01T02:01:57;16.00;99.90
23568;DHT22;11962;50.838;4.430;2023-06-01T02:04:23;15.90;99.90
23568;DHT22;11962;50.838;4.430;2023-06-01T02:06:48;15.90;99.90
23568;DHT22;11962;50.838;4.430;2023-06-01T02:09:14;15.90;99.90
23568;DHT22;11962;50.838;4.430;2023-06-01T02:11:40;15.80;99.90
23568;DHT22;11962;50.838;4.430;2023-06-01T02:14:06;15.80;99.90
23568;DHT22;11962;50.838;4.430;2023-06-01T02:16:31;15.80;99.90
23568;DHT22;11962;50.838;4.430;2023-06-01T02:18:57;15.70;99.90
23568;DHT22;11962;50.838;4.430;2023-06-01T02:21:24;15.70;99.90
23568;DHT22;11962;50.838;4.430;2023-06-01T02:23:50;15.60;99.90
23568;DHT22;11962;50.838;4.430;2023-06-01T02:26:16;15.60;99.90
23568;DHT22;11962;50.838;4.430;2023-06-01T02:28:42;15.60;99.90
23568;DHT22;11962;50.838;4.430;2023-06-01T02:31:13;15.50;99.90
23568;DHT22;11962;50.838;4.430;2023-06-01T02:33:39;15.50;99.90
23568;DHT22;11962;50.838;4.430;2023-06-01T02:36:05;15.50;99.90
23568;DHT22;11962;50.838;4.430;2023-06-01T02:38:31;15.40;99.90
23568;DHT22;11962;50.838;4.430;2023-06-01T02:40:57;15.40;99.90
23568;DHT22;11962;50.838;4.430;2023-06-01T02:43:23;15.40;99.90
23568;DHT22;11962;50.838;4.430;2023-06-01T02:45:48;15.30;99.90
23568;DHT22;11962;50.838;4.430;2023-06-01T02:48:14;15.30;99.90
23568;DHT22;11962;50.838;4.430;2023-06-01T02:50:40;15.20;99.90
23568;DHT22;11962;50.838;4.430;2023-06-01T02:53:06;15.20;99.90
23568;DHT22;11962;50.838;4.430;2023-06-01T02:55:31;15.20;99.90
23568;DHT22;11962;50.838;4.430;2023-06-01T02:57:57;15.10;99.90
23568;DHT22;11962;50.838;4.430;2023-06-01T03:00:23;15.10;99.90
23568;DHT22;11962;50.838;4.430;2023-06-01T03:02:49;15.00;99.90
23568;DHT22;11962;50.838;4.430;2023-06-01T03:05:15;15.00;99.90
23568;DHT22;11962;50.838;4.430;2023-06-01T03:07:45;15.00;99.90
23568;DHT22;11962;50.838;4.430;2023-06-01T03:10:11;14.90;99.90
23568;DHT22;11962;50.838;4.430;2023-06-01T03:12:38;14.90;99.90
23568;DHT22;11962;50.838;4.430;2023-06-01T03:15:04;14.90;99.90
23568;DHT22;11962;50.838;4.430;2023-06-01T03:17:30;14.80;99.90
23568;DHT22;11962;50.838;4.430;2023-06-01T03:19:57;14.80;99.90
23568;DHT22;11962;50.838;4.430;2023-06-01T03:22:23;14.80;99.90
23568;DHT22;11962;50.838;4.430;2023-06-01T03:24:49;14.70;99.90
23568;DHT22;11962;50.838;4.430;2023-06-01T03:27:17;14.70;99.90
23568;DHT22;11962;50.838;4.430;2023-06-01T03:29:44;14.70;99.90
23568;DHT22;11962;50.838;4.430;2023-06-01T03:32:11;14.70;99.90
23568;DHT22;11962;50.838;4.430;2023-06-01T03:34:36;14.70;99.90
23568;DHT22;11962;50.838;4.430;2023-06-01T03:37:03;14.60;99.90
23568;DHT22;11962;50.838;4.430;2023-06-01T03:39:30;14.60;99.90
23568;DHT22;11962;50.838;4.430;2023-06-01T03:41:59;14.60;99.90
23568;DHT22;11962;50.838;4.430;2023-06-01T03:44:25;14.60;99.90
23568;DHT22;11962;50.838;4.430;2023-06-01T03:46:51;14.60;99.90
23568;DHT22;11962;50.838;4.430;2023-06-01T03:49:17;14.50;99.90
23568;DHT22;11962;50.838;4.430;2023-06-01T03:51:43;14.60;99.90
23568;DHT22;11962;50.838;4.430;2023-06-01T03:54:08;14.50;99.90
23568;DHT22;11962;50.838;4.430;2023-06-01T03:56:35;14.60;99.90
23568;DHT22;11962;50.838;4.430;2023-06-01T03:59:00;14.60;99.90
23568;DHT22;11962;50.838;4.430;2023-06-01T04:01:27;14.60;99.90
23568;DHT22;11962;50.838;4.430;2023-06-01T04:03:55;14.60;99.90
23568;DHT22;11962;50.838;4.430;2023-06-01T04:06:22;14.70;99.90
23568;DHT22;11962;50.838;4.430;2023-06-01T04:08:50;14.70;99.90
23568;DHT22;11962;50.838;4.430;2023-06-01T04:11:21;14.70;99.90
23568;DHT22;11962;50.838;4.430;2023-06-01T04:13:47;14.70;99.90
23568;DHT22;11962;50.838;4.430;2023-06-01T04:16:13;14.70;99.90
23568;DHT22;11962;50.838;4.430;2023-06-01T04:18:39;14.70;99.90
23568;DHT22;11962;50.838;4.430;2023-06-01T04:21:05;14.70;99.90
23568;DHT22;11962;50.838;4.430;2023-06-01T04:23:35;14.70;99.90
23568;DHT22;11962;50.838;4.430;2023-06-01T04:26:01;14.80;99.90
23568;DHT22;11962;50.838;4.430;2023-06-01T04:28:28;14.80;99.90
23568;DHT22;11962;50.838;4.430;2023-06-01T04:30:55;14.80;99.90
23568;DHT22;11962;50.838;4.430;2023-06-01T04:33:21;14.80;99.90
23568;DHT22;11962;50.838;4.430;2023-06-01T04:35:50;14.80;99.90
23568;DHT22;11962;50.838;4.430;2023-06-01T04:38:21;14.90;99.90
23568;DHT22;11962;50.838;4.430;2023-06-01T04:40:50;14.90;99.90
23568;DHT22;11962;50.838;4.430;2023-06-01T04:43:18;15.00;99.90
23568;DHT22;11962;50.838;4.430;2023-06-01T04:45:45;15.00;99.90
23568;DHT22;11962;50.838;4.430;2023-06-01T04:48:11;15.10;99.90
23568;DHT22;11962;50.838;4.430;2023-06-01T04:50:37;15.10;99.90
23568;DHT22;11962;50.838;4.430;2023-06-01T04:53:03;15.10;99.90
23568;DHT22;11962;50.838;4.430;2023-06-01T04:55:29;15.20;99.90
23568;DHT22;11962;50.838;4.430;2023-06-01T04:57:58;15.20;99.90
23568;DHT22;11962;50.838;4.430;2023-06-01T05:00:23;15.30;99.90
23568;DHT22;11962;50.838;4.430;2023-06-01T05:02:49;15.30;99.90
23568;DHT22;11962;50.838;4.430;2023-06-01T05:05:15;15.30;99.90
23568;DHT22;11962;50.838;4.430;2023-06-01T05:07:42;15.30;99.90
23568;DHT22;11962;50.838;4.430;2023-06-01T05:10:09;15.30;99.90
23568;DHT22;11962;50.838;4.430;2023-06-01T05:12:36;15.40;99.90
23568;DHT22;11962;50.838;4.430;2023-06-01T05:15:04;15.40;99.90
23568;DHT22;11962;50.838;4.430;2023-06-01T05:17:31;15.40;99.90
23568;DHT22;11962;50.838;4.430;2023-06-01T05:19:56;15.50;99.90
23568;DHT22;11962;50.838;4.430;2023-06-01T05:22:23;15.50;99.90
23568;DHT22;11962;50.838;4.430;2023-06-01T05:24:49;15.50;99.90
23568;DHT22;11962;50.838;4.430;2023-06-01T05:27:15;15.50;99.90
23568;DHT22;11962;50.838;4.430;2023-06-01T05:29:41;15.60;99.90
23568;DHT22;11962;50.838;4.430;2023-06-01T05:32:08;15.60;99.90
23568;DHT22;11962;50.838;4.430;2023-06-01T05:34:34;15.60;99.90
23568;DHT22;11962;50.838;4.430;2023-06-01T05:37:00;15.60;99.90
23568;DHT22;11962;50.838;4.430;2023-06-01T05:39:26;15.50;99.90
23568;DHT22;11962;50.838;4.430;2023-06-01T05:41:56;15.60;99.90
23568;DHT22;11962;50.838;4.430;2023-06-01T05:44:23;15.70;99.90
23568;DHT22;11962;50.838;4.430;2023-06-01T05:46:50;15.80;99.90
23568;DHT22;11962;50.838;4.430;2023-06-01T05:49:16;15.80;99.90
23568;DHT22;11962;50.838;4.430;2023-06-01T05:51:42;15.90;99.90
23568;DHT22;11962;50.838;4.430;2023-06-01T05:54:09;15.90;99.90
23568;DHT22;11962;50.838;4.430;2023-06-01T05:56:35;16.00;99.90
23568;DHT22;11962;50.838;4.430;2023-06-01T05:59:02;16.00;99.90
23568;DHT22;11962;50.838;4.430;2023-06-01T06:01:29;16.00;99.90
23568;DHT22;11962;50.838;4.430;2023-06-01T06:03:55;16.00;99.90
23568;DHT22;11962;50.838;4.430;2023-06-01T06:06:21;16.10;99.90
23568;DHT22;11962;50.838;4.430;2023-06-01T06:08:48;16.10;99.90
23568;DHT22;11962;50.838;4.430;2023-06-01T06:11:14;16.10;99.90
23568;DHT22;11962;50.838;4.430;2023-06-01T06:13:39;16.10;99.90
23568;DHT22;11962;50.838;4.430;2023-06-01T06:16:05;16.20;99.90
23568;DHT22;11962;50.838;4.430;2023-06-01T06:18:31;16.20;99.90
23568;DHT22;11962;50.838;4.430;2023-06-01T06:20:57;16.30;99.90
23568;DHT22;11962;50.838;4.430;2023-06-01T06:23:23;16.30;99.90
23568;DHT22;11962;50.838;4.430;2023-06-01T06:25:49;16.40;99.90
23568;DHT22;11962;50.838;4.430;2023-06-01T06:28:15;16.40;99.90
23568;DHT22;11962;50.838;4.430;2023-06-01T06:30:41;16.50;99.90
23568;DHT22;11962;50.838;4.430;2023-06-01T06:33:07;16.60;99.90
23568;DHT22;11962;50.838;4.430;2023-06-01T06:35:32;16.80;99.90
23568;DHT22;11962;50.838;4.430;2023-06-01T06:37:58;16.80;99.90
23568;DHT22;11962;50.838;4.430;2023-06-01T06:40:24;16.90;99.90
23568;DHT22;11962;50.838;4.430;2023-06-01T06:42:50;17.00;99.90
23568;DHT22;11962;50.838;4.430;2023-06-01T06:45:16;17.20;99.90
23568;DHT22;11962;50.838;4.430;2023-06-01T06:47:42;17.30;99.90
23568;DHT22;11962;50.838;4.430;2023-06-01T06:50:11;17.30;99.90
23568;DHT22;11962;50.838;4.430;2023-06-01T06:52:37;17.40;99.90
23568;DHT22;11962;50.838;4.430;2023-06-01T06:55:03;17.60;99.90
23568;DHT22;11962;50.838;4.430;2023-06-01T06:57:28;17.70;99.90
23568;DHT22;11962;50.838;4.430;2023-06-01T06:59:54;17.70;99.90
23568;DHT22;11962;50.838;4.430;2023-06-01T07:02:20;17.80;99.90
23568;DHT22;11962;50.838;4.430;2023-06-01T07:04:46;17.90;99.90
23568;DHT22;11962;50.838;4.430;2023-06-01T07:07:12;17.80;99.90
23568;DHT22;11962;50.838;4.430;2023-06-01T07:09:38;17.60;99.90
23568;DHT22;11962;50.838;4.430;2023-06-01T07:12:04;17.70;99.90
23568;DHT22;11962;50.838;4.430;2023-06-01T07:14:31;17.90;99.90
23568;DHT22;11962;50.838;4.430;2023-06-01T07:16:57;18.20;99.90
23568;DHT22;11962;50.838;4.430;2023-06-01T07:19:22;18.50;99.90
23568;DHT22;11962;50.838;4.430;2023-06-01T07:21:49;18.90;99.90
23568;DHT22;11962;50.838;4.430;2023-06-01T07:24:18;19.10;99.90
23568;DHT22;11962;50.838;4.430;2023-06-01T07:26:44;19.20;99.90
23568;DHT22;11962;50.838;4.430;2023-06-01T07:29:10;19.40;99.90
23568;DHT22;11962;50.838;4.430;2023-06-01T07:31:37;19.60;99.90
23568;DHT22;11962;50.838;4.430;2023-06-01T07:34:04;19.80;99.90
23568;DHT22;11962;50.838;4.430;2023-06-01T07:36:30;20.30;99.90
23568;DHT22;11962;50.838;4.430;2023-06-01T07:39:03;20.60;99.90
23568;DHT22;11962;50.838;4.430;2023-06-01T07:41:32;21.60;98.90
23568;DHT22;11962;50.838;4.430;2023-06-01T07:43:58;22.80;95.90
23568;DHT22;11962;50.838;4.430;2023-06-01T07:46:24;24.20;92.50
23568;DHT22;11962;50.838;4.430;2023-06-01T07:48:50;25.30;89.70
23568;DHT22;11962;50.838;4.430;2023-06-01T07:51:16;26.50;83.30
23568;DHT22;11962;50.838;4.430;2023-06-01T07:53:42;27.70;74.70
23568;DHT22;11962;50.838;4.430;2023-06-01T07:56:08;27.80;71.10
23568;DHT22;11962;50.838;4.430;2023-06-01T07:58:34;27.60;70.30
23568;DHT22;11962;50.838;4.430;2023-06-01T08:01:02;27.70;69.30
23568;DHT22;11962;50.838;4.430;2023-06-01T08:03:28;28.00;67.60
23568;DHT22;11962;50.838;4.430;2023-06-01T08:05:54;28.50;65.70
23568;DHT22;11962;50.838;4.430;2023-06-01T08:08:23;28.90;64.30
23568;DHT22;11962;50.838;4.430;2023-06-01T08:10:49;30.10;61.50
23568;DHT22;11962;50.838;4.430;2023-06-01T08:13:15;30.90;59.00
23568;DHT22;11962;50.838;4.430;2023-06-01T08:15:41;32.00;57.10
23568;DHT22;11962;50.838;4.430;2023-06-01T08:18:07;33.60;53.80
23568;DHT22;11962;50.838;4.430;2023-06-01T08:20:34;34.70;50.40
23568;DHT22;11962;50.838;4.430;2023-06-01T08:23:01;35.30;49.40
23568;DHT22;11962;50.838;4.430;2023-06-01T08:25:28;36.40;46.90
23568;DHT22;11962;50.838;4.430;2023-06-01T08:27:54;37.00;45.20
23568;DHT22;11962;50.838;4.430;2023-06-01T08:30:20;36.90;44.50
23568;DHT22;11962;50.838;4.430;2023-06-01T08:32:46;36.60;44.80
23568;DHT22;11962;50.838;4.430;2023-06-01T08:35:12;37.20;43.90
23568;DHT22;11962;50.838;4.430;2023-06-01T08:37:38;37.20;43.40
23568;DHT22;11962;50.838;4.430;2023-06-01T08:40:05;37.30;43.20
23568;DHT22;11962;50.838;4.430;2023-06-01T08:45:11;38.00;41.80
23568;DHT22;11962;50.838;4.430;2023-06-01T08:47:38;37.90;42.00
23568;DHT22;11962;50.838;4.430;2023-06-01T08:50:04;38.60;40.90
23568;DHT22;11962;50.838;4.430;2023-06-01T08:52:31;39.30;40.60
23568;DHT22;11962;50.838;4.430;2023-06-01T08:55:00;40.20;39.30
23568;DHT22;11962;50.838;4.430;2023-06-01T08:57:28;40.40;38.20
23568;DHT22;11962;50.838;4.430;2023-06-01T08:59:55;40.60;38.10
23568;DHT22;11962;50.838;4.430;2023-06-01T09:02:21;41.30;37.80
23568;DHT22;11962;50.838;4.430;2023-06-01T09:04:47;42.00;36.90
23568;DHT22;11962;50.838;4.430;2023-06-01T09:07:14;42.40;36.20
23568;DHT22;11962;50.838;4.430;2023-06-01T09:09:40;42.80;35.50
23568;DHT22;11962;50.838;4.430;2023-06-01T09:12:17;42.90;35.30
23568;DHT22;11962;50.838;4.430;2023-06-01T09:14:43;43.40;34.90
23568;DHT22;11962;50.838;4.430;2023-06-01T09:17:21;43.50;34.30
23568;DHT22;11962;50.838;4.430;2023-06-01T09:19:50;43.50;34.30
23568;DHT22;11962;50.838;4.430;2023-06-01T09:22:15;43.70;33.90
23568;DHT22;11962;50.838;4.430;2023-06-01T09:24:58;43.90;33.70
23568;DHT22;11962;50.838;4.430;2023-06-01T09:27:24;44.50;34.30
23568;DHT22;11962;50.838;4.430;2023-06-01T09:29:56;44.70;32.70
23568;DHT22;11962;50.838;4.430;2023-06-01T09:32:22;44.30;32.70
23568;DHT22;11962;50.838;4.430;2023-06-01T09:34:48;44.20;32.80
23568;DHT22;11962;50.838;4.430;2023-06-01T09:37:14;44.40;33.10
23568;DHT22;11962;50.838;4.430;2023-06-01T09:39:40;44.70;32.70
23568;DHT22;11962;50.838;4.430;2023-06-01T09:42:06;45.20;32.20
23568;DHT22;11962;50.838;4.430;2023-06-01T09:44:34;45.60;31.90
23568;DHT22;11962;50.838;4.430;2023-06-01T09:47:03;45.70;31.40
23568;DHT22;11962;50.838;4.430;2023-06-01T09:49:36;45.50;31.30
23568;DHT22;11962;50.838;4.430;2023-06-01T09:57:07;45.10;31.70
23568;DHT22;11962;50.838;4.430;2023-06-01T09:59:42;45.30;31.20
23568;DHT22;11962;50.838;4.430;2023-06-01T10:02:20;45.40;31.10
23568;DHT22;11962;50.838;4.430;2023-06-01T10:04:55;45.20;31.20
23568;DHT22;11962;50.838;4.430;2023-06-01T10:07:30;45.10;30.80
23568;DHT22;11962;50.838;4.430;2023-06-01T10:09:58;45.20;31.20
23568;DHT22;11962;50.838;4.430;2023-06-01T10:12:25;45.10;31.00
23568;DHT22;11962;50.838;4.430;2023-06-01T10:14:51;45.10;30.90
23568;DHT22;11962;50.838;4.430;2023-06-01T10:17:19;45.10;30.90
23568;DHT22;11962;50.838;4.430;2023-06-01T10:19:45;45.10;30.70
23568;DHT22;11962;50.838;4.430;2023-06-01T10:22:11;45.30;30.50
23568;DHT22;11962;50.838;4.430;2023-06-01T10:24:38;45.30;30.50
23568;DHT22;11962;50.838;4.430;2023-06-01T10:30:27;45.20;30.30
23568;DHT22;11962;50.838;4.430;2023-06-01T10:32:52;45.10;30.50
23568;DHT22;11962;50.838;4.430;2023-06-01T10:40:36;45.20;30.00
23568;DHT22;11962;50.838;4.430;2023-06-01T10:43:02;45.50;29.80
23568;DHT22;11962;50.838;4.430;2023-06-01T10:48:04;45.40;29.60
23568;DHT22;11962;50.838;4.430;2023-06-01T10:50:31;45.30;29.60
23568;DHT22;11962;50.838;4.430;2023-06-01T10:53:23;45.20;29.80
23568;DHT22;11962;50.838;4.430;2023-06-01T10:56:19;44.80;29.70
23568;DHT22;11962;50.838;4.430;2023-06-01T10:58:47;44.20;29.80
23568;DHT22;11962;50.838;4.430;2023-06-01T11:01:18;43.60;30.00
23568;DHT22;11962;50.838;4.430;2023-06-01T11:03:45;42.90;30.50
23568;DHT22;11962;50.838;4.430;2023-06-01T11:06:32;43.00;31.10
23568;DHT22;11962;50.838;4.430;2023-06-01T11:09:00;42.60;30.80
23568;DHT22;11962;50.838;4.430;2023-06-01T11:14:22;42.60;31.20
23568;DHT22;11962;50.838;4.430;2023-06-01T11:16:54;42.80;30.90
23568;DHT22;11962;50.838;4.430;2023-06-01T11:19:23;42.90;30.60
23568;DHT22;11962;50.838;4.430;2023-06-01T11:21:59;42.80;30.50
23568;DHT22;11962;50.838;4.430;2023-06-01T11:24:37;42.90;30.70
23568;DHT22;11962;50.838;4.430;2023-06-01T11:27:07;42.90;30.50
23568;DHT22;11962;50.838;4.430;2023-06-01T11:29:34;42.60;30.20
23568;DHT22;11962;50.838;4.430;2023-06-01T11:32:01;42.00;30.80
23568;DHT22;11962;50.838;4.430;2023-06-01T11:34:33;41.70;31.30
23568;DHT22;11962;50.838;4.430;2023-06-01T11:37:03;41.50;31.90
23568;DHT22;11962;50.838;4.430;2023-06-01T11:39:29;40.90;32.30
23568;DHT22;11962;50.838;4.430;2023-06-01T11:42:05;40.00;32.50
23568;DHT22;11962;50.838;4.430;2023-06-01T11:44:36;39.00;33.90
23568;DHT22;11962;50.838;4.430;2023-06-01T11:47:02;38.20;34.70
23568;DHT22;11962;50.838;4.430;2023-06-01T11:49:29;37.70;35.50
23568;DHT22;11962;50.838;4.430;2023-06-01T11:51:55;37.10;36.30
23568;DHT22;11962;50.838;4.430;2023-06-01T11:54:26;36.00;37.10
23568;DHT22;11962;50.838;4.430;2023-06-01T11:56:54;34.90;39.20
23568;DHT22;11962;50.838;4.430;2023-06-01T11:59:21;34.10;39.40
23568;DHT22;11962;50.838;4.430;2023-06-01T12:01:49;33.30;39.60
23568;DHT22;11962;50.838;4.430;2023-06-01T12:04:16;32.60;40.60
23568;DHT22;11962;50.838;4.430;2023-06-01T12:06:42;32.00;41.60
23568;DHT22;11962;50.838;4.430;2023-06-01T12:09:08;31.50;42.50
23568;DHT22;11962;50.838;4.430;2023-06-01T12:11:34;31.10;43.40
23568;DHT22;11962;50.838;4.430;2023-06-01T12:14:01;30.80;43.40
23568;DHT22;11962;50.838;4.430;2023-06-01T12:16:59;30.40;43.70
23568;DHT22;11962;50.838;4.430;2023-06-01T12:19:26;29.90;44.60
23568;DHT22;11962;50.838;4.430;2023-06-01T12:21:55;29.40;45.70
23568;DHT22;11962;50.838;4.430;2023-06-01T12:24:28;29.20;46.30
23568;DHT22;11962;50.838;4.430;2023-06-01T12:26:56;28.90;46.30
23568;DHT22;11962;50.838;4.430;2023-06-01T12:29:41;28.70;46.80
23568;DHT22;11962;50.838;4.430;2023-06-01T12:32:08;28.50;47.80
23568;DHT22;11962;50.838;4.430;2023-06-01T12:34:39;28.40;47.70
23568;DHT22;11962;50.838;4.430;2023-06-01T12:37:18;28.40;48.00
23568;DHT22;11962;50.838;4.430;2023-06-01T12:39:54;28.40;47.40
23568;DHT22;11962;50.838;4.430;2023-06-01T12:42:34;28.20;46.70
23568;DHT22;11962;50.838;4.430;2023-06-01T12:45:04;28.10;47.00
23568;DHT22;11962;50.838;4.430;2023-06-01T12:47:41;28.00;47.10
23568;DHT22;11962;50.838;4.430;2023-06-01T12:50:11;27.70;48.30
23568;DHT22;11962;50.838;4.430;2023-06-01T12:52:38;27.60;47.30
23568;DHT22;11962;50.838;4.430;2023-06-01T12:55:04;27.50;47.70
23568;DHT22;11962;50.838;4.430;2023-06-01T12:57:32;27.50;47.60
23568;DHT22;11962;50.838;4.430;2023-06-01T13:00:00;27.50;48.00
23568;DHT22;11962;50.838;4.430;2023-06-01T13:02:26;27.50;48.10
23568;DHT22;11962;50.838;4.430;2023-06-01T13:04:52;27.50;47.90
23568;DHT22;11962;50.838;4.430;2023-06-01T13:07:19;27.40;48.10
23568;DHT22;11962;50.838;4.430;2023-06-01T13:09:47;27.30;47.90
23568;DHT22;11962;50.838;4.430;2023-06-01T13:12:13;27.20;47.20
23568;DHT22;11962;50.838;4.430;2023-06-01T13:14:39;27.10;46.30
23568;DHT22;11962;50.838;4.430;2023-06-01T13:17:05;27.00;47.60
23568;DHT22;11962;50.838;4.430;2023-06-01T13:19:31;26.80;48.70
23568;DHT22;11962;50.838;4.430;2023-06-01T13:21:57;26.80;49.50
23568;DHT22;11962;50.838;4.430;2023-06-01T13:24:23;26.80;49.50
23568;DHT22;11962;50.838;4.430;2023-06-01T13:26:49;26.80;47.60
23568;DHT22;11962;50.838;4.430;2023-06-01T13:29:15;26.70;48.50
23568;DHT22;11962;50.838;4.430;2023-06-01T13:31:41;26.80;49.40
23568;DHT22;11962;50.838;4.430;2023-06-01T13:34:07;26.60;49.60
23568;DHT22;11962;50.838;4.430;2023-06-01T13:36:33;26.50;50.30
23568;DHT22;11962;50.838;4.430;2023-06-01T13:39:00;26.60;50.60
23568;DHT22;11962;50.838;4.430;2023-06-01T13:41:26;26.60;50.70
23568;DHT22;11962;50.838;4.430;2023-06-01T13:43:52;26.60;50.80
23568;DHT22;11962;50.838;4.430;2023-06-01T13:46:18;26.60;50.60
23568;DHT22;11962;50.838;4.430;2023-06-01T13:48:44;26.60;50.30
23568;DHT22;11962;50.838;4.430;2023-06-01T13:51:10;26.60;49.90
23568;DHT22;11962;50.838;4.430;2023-06-01T13:53:35;26.50;50.40
23568;DHT22;11962;50.838;4.430;2023-06-01T13:56:01;26.50;50.50
23568;DHT22;11962;50.838;4.430;2023-06-01T13:58:28;26.50;50.10
23568;DHT22;11962;50.838;4.430;2023-06-01T14:00:54;26.50;50.20
23568;DHT22;11962;50.838;4.430;2023-06-01T14:03:20;26.40;50.40
23568;DHT22;11962;50.838;4.430;2023-06-01T14:05:45;26.40;50.30
23568;DHT22;11962;50.838;4.430;2023-06-01T14:08:11;26.40;50.30
23568;DHT22;11962;50.838;4.430;2023-06-01T14:10:37;26.50;51.10
23568;DHT22;11962;50.838;4.430;2023-06-01T14:13:03;26.50;51.00
23568;DHT22;11962;50.838;4.430;2023-06-01T14:15:29;26.50;51.60
23568;DHT22;11962;50.838;4.430;2023-06-01T14:17:55;26.50;51.90
23568;DHT22;11962;50.838;4.430;2023-06-01T14:20:21;26.50;52.00
23568;DHT22;11962;50.838;4.430;2023-06-01T14:22:47;26.50;52.20
23568;DHT22;11962;50.838;4.430;2023-06-01T14:25:13;26.40;52.10
23568;DHT22;11962;50.838;4.430;2023-06-01T14:27:39;26.30;51.10
23568;DHT22;11962;50.838;4.430;2023-06-01T14:30:06;26.20;51.10
23568;DHT22;11962;50.838;4.430;2023-06-01T14:32:32;26.20;51.10
23568;DHT22;11962;50.838;4.430;2023-06-01T14:34:58;26.20;52.00
23568;DHT22;11962;50.838;4.430;2023-06-01T14:37:24;26.20;51.90
23568;DHT22;11962;50.838;4.430;2023-06-01T14:39:50;26.30;51.80
23568;DHT22;11962;50.838;4.430;2023-06-01T14:42:16;26.30;51.80
23568;DHT22;11962;50.838;4.430;2023-06-01T14:44:42;26.30;51.40
23568;DHT22;11962;50.838;4.430;2023-06-01T14:47:08;26.30;51.30
23568;DHT22;11962;50.838;4.430;2023-06-01T14:49:37;26.30;51.50
23568;DHT22;11962;50.838;4.430;2023-06-01T14:52:03;26.30;51.70
23568;DHT22;11962;50.838;4.430;2023-06-01T14:54:29;26.20;52.20
23568;DHT22;11962;50.838;4.430;2023-06-01T14:56:54;26.20;52.50
23568;DHT22;11962;50.838;4.430;2023-06-01T14:59:20;26.20;52.50
23568;DHT22;11962;50.838;4.430;2023-06-01T15:01:46;26.10;52.40
23568;DHT22;11962;50.838;4.430;2023-06-01T15:04:12;26.00;51.80
23568;DHT22;11962;50.838;4.430;2023-06-01T15:06:38;25.90;51.50
23568;DHT22;11962;50.838;4.430;2023-06-01T15:09:04;25.80;50.70
23568;DHT22;11962;50.838;4.430;2023-06-01T15:11:30;25.70;50.40
23568;DHT22;11962;50.838;4.430;2023-06-01T15:13:55;25.70;50.30
23568;DHT22;11962;50.838;4.430;2023-06-01T15:16:21;25.70;50.70
23568;DHT22;11962;50.838;4.430;2023-06-01T15:18:47;25.70;50.80
23568;DHT22;11962;50.838;4.430;2023-06-01T15:21:13;25.70;50.80
23568;DHT22;11962;50.838;4.430;2023-06-01T15:23:39;25.70;50.80
23568;DHT22;11962;50.838;4.430;2023-06-01T15:26:05;25.70;51.50
23568;DHT22;11962;50.838;4.430;2023-06-01T15:28:31;25.70;52.40
23568;DHT22;11962;50.838;4.430;2023-06-01T15:30:56;25.70;52.90
23568;DHT22;11962;50.838;4.430;2023-06-01T15:33:22;25.70;52.90
23568;DHT22;11962;50.838;4.430;2023-06-01T15:35:48;25.70;52.50
23568;DHT22;11962;50.838;4.430;2023-06-01T15:38:13;25.80;52.50
23568;DHT22;11962;50.838;4.430;2023-06-01T15:40:39;25.70;52.70
23568;DHT22;11962;50.838;4.430;2023-06-01T15:43:05;25.60;53.30
23568;DHT22;11962;50.838;4.430;2023-06-01T15:45:31;25.60;53.60
23568;DHT22;11962;50.838;4.430;2023-06-01T15:47:57;25.50;53.30
23568;DHT22;11962;50.838;4.430;2023-06-01T15:50:22;25.50;53.50
23568;DHT22;11962;50.838;4.430;2023-06-01T15:52:48;25.40;53.60
23568;DHT22;11962;50.838;4.430;2023-06-01T15:55:14;25.40;54.10
23568;DHT22;11962;50.838;4.430;2023-06-01T15:57:40;25.40;54.20
23568;DHT22;11962;50.838;4.430;2023-06-01T16:00:06;25.40;54.30
23568;DHT22;11962;50.838;4.430;2023-06-01T16:02:32;25.40;53.90
23568;DHT22;11962;50.838;4.430;2023-06-01T16:04:58;25.40;54.20
23568;DHT22;11962;50.838;4.430;2023-06-01T16:07:23;25.40;54.20